sensor_id;sensor_type;location;lat;lon;timestamp;pressure;altitude;pressure_sealevel;temperature;humidity
7802;BME280;3945;48.952;9.506;2023-02-03T00:00:46;99134.44;;;6.35;87.49
7802;BME280;3945;48.952;9.506;2023-02-03T00:03:13;99132.81;;;6.34;87.88
7802;BME280;3945;48.952;9.506;2023-02-03T00:05:39;99135.47;;;6.34;88.59
7802;BME280;3945;48.952;9.506;2023-02-03T00:08:06;99133.00;;;6.32;88.27
7802;BME280;3945;48.952;9.506;2023-02-03T00:10:35;99138.13;;;6.34;87.69
7802;BME280;3945;48.952;9.506;2023-02-03T00:13:03;99147.03;;;6.33;88.57
7802;BME280;3945;48.952;9.506;2023-02-03T00:15:30;99141.53;;;6.34;88.71
7802;BME280;3945;48.952;9.506;2023-02-03T00:17:56;99147.41;;;6.30;87.98
7802;BME280;3945;48.952;9.506;2023-02-03T00:20:22;99151.69;;;6.31;88.07
7802;BME280;3945;48.952;9.506;2023-02-03T00:22:49;99144.75;;;6.30;88.89
7802;BME280;3945;48.952;9.506;2023-02-03T00:25:16;99138.81;;;6.27;88.60
7802;BME280;3945;48.952;9.506;2023-02-03T00:27:43;99139.47;;;6.30;88.81
7802;BME280;3945;48.952;9.506;2023-02-03T00:30:10;99141.47;;;6.27;88.67
7802;BME280;3945;48.952;9.506;2023-02-03T00:32:37;99138.47;;;6.31;88.13
7802;BME280;3945;48.952;9.506;2023-02-03T00:35:04;99143.75;;;6.31;88.95
7802;BME280;3945;48.952;9.506;2023-02-03T00:37:31;99151.41;;;6.25;89.02
7802;BME280;3945;48.952;9.506;2023-02-03T00:39:57;99161.00;;;6.26;89.28
7802;BME280;3945;48.952;9.506;2023-02-03T00:42:23;99168.09;;;6.26;88.12
7802;BME280;3945;48.952;9.506;2023-02-03T00:44:51;99165.47;;;6.26;88.38
7802;BME280;3945;48.952;9.506;2023-02-03T00:47:17;99165.25;;;6.27;88.56
7802;BME280;3945;48.952;9.506;2023-02-03T00:49:44;99154.69;;;6.27;88.95
7802;BME280;3945;48.952;9.506;2023-02-03T00:52:10;99157.69;;;6.24;88.69
7802;BME280;3945;48.952;9.506;2023-02-03T00:54:36;99155.25;;;6.23;89.32
7802;BME280;3945;48.952;9.506;2023-02-03T00:57:03;99156.88;;;6.24;89.34
7802;BME280;3945;48.952;9.506;2023-02-03T00:59:29;99163.16;;;6.23;88.79
7802;BME280;3945;48.952;9.506;2023-02-03T01:01:57;99163.81;;;6.25;89.19
7802;BME280;3945;48.952;9.506;2023-02-03T01:04:23;99164.16;;;6.22;89.87
7802;BME280;3945;48.952;9.506;2023-02-03T01:06:50;99160.53;;;6.23;89.08
7802;BME280;3945;48.952;9.506;2023-02-03T01:09:20;99151.59;;;6.24;89.34
7802;BME280;3945;48.952;9.506;2023-02-03T01:11:46;99126.44;;;6.28;88.85
7802;BME280;3945;48.952;9.506;2023-02-03T01:14:12;99118.31;;;6.30;88.78
7802;BME280;3945;48.952;9.506;2023-02-03T01:16:39;99120.31;;;6.27;89.43
7802;BME280;3945;48.952;9.506;2023-02-03T01:19:07;99121.53;;;6.25;89.12
7802;BME280;3945;48.952;9.506;2023-02-03T01:21:33;99121.88;;;6.22;89.01
7802;BME280;3945;48.952;9.506;2023-02-03T01:24:00;99129.81;;;6.22;89.84
7802;BME280;3945;48.952;9.506;2023-02-03T01:26:27;99133.28;;;6.22;89.09
7802;BME280;3945;48.952;9.506;2023-02-03T01:28:54;99130.81;;;6.21;89.55
7802;BME280;3945;48.952;9.506;2023-02-03T01:31:21;99134.09;;;6.23;89.93
7802;BME280;3945;48.952;9.506;2023-02-03T01:33:48;99126.16;;;6.23;89.69
7802;BME280;3945;48.952;9.506;2023-02-03T01:36:16;99111.94;;;6.24;89.64
7802;BME280;3945;48.952;9.506;2023-02-03T01:38:42;99102.03;;;6.26;89.38
7802;BME280;3945;48.952;9.506;2023-02-03T01:41:10;99109.13;;;6.25;89.16
7802;BME280;3945;48.952;9.506;2023-02-03T01:43:38;99100.38;;;6.25;89.34
7802;BME280;3945;48.952;9.506;2023-02-03T01:46:06;99110.94;;;6.25;89.04
7802;BME280;3945;48.952;9.506;2023-02-03T01:48:41;99107.09;;;6.27;89.01
7802;BME280;3945;48.952;9.506;2023-02-03T01:51:07;99110.78;;;6.26;88.98
7802;BME280;3945;48.952;9.506;2023-02-03T01:53:35;99120.53;;;6.26;89.39
7802;BME280;3945;48.952;9.506;2023-02-03T01:56:03;99124.34;;;6.23;89.40
7802;BME280;3945;48.952;9.506;2023-02-03T01:58:30;99115.78;;;6.21;89.59
7802;BME280;3945;48.952;9.506;2023-02-03T02:00:59;99099.75;;;6.23;89.28
7802;BME280;3945;48.952;9.506;2023-02-03T02:03:26;99098.09;;;6.22;89.20
7802;BME280;3945;48.952;9.506;2023-02-03T02:05:55;99100.09;;;6.20;89.31
7802;BME280;3945;48.952;9.506;2023-02-03T02:08:25;99085.25;;;6.19;89.84
7802;BME280;3945;48.952;9.506;2023-02-03T02:10:53;99084.44;;;6.18;89.36
7802;BME280;3945;48.952;9.506;2023-02-03T02:13:20;99071.22;;;6.18;89.07
7802;BME280;3945;48.952;9.506;2023-02-03T02:15:49;99061.19;;;6.14;89.98
7802;BME280;3945;48.952;9.506;2023-02-03T02:18:23;99053.25;;;6.14;89.96
7802;BME280;3945;48.952;9.506;2023-02-03T02:32:00;99026.31;;;6.04;89.15
7802;BME280;3945;48.952;9.506;2023-02-03T02:34:33;99019.66;;;6.08;89.21
7802;BME280;3945;48.952;9.506;2023-02-03T02:37:04;99003.38;;;6.04;89.19
7802;BME280;3945;48.952;9.506;2023-02-03T02:39:36;99023.88;;;6.02;89.74
7802;BME280;3945;48.952;9.506;2023-02-03T02:42:04;99034.44;;;6.02;89.62
7802;BME280;3945;48.952;9.506;2023-02-03T02:44:34;99042.19;;;6.04;89.86
7802;BME280;3945;48.952;9.506;2023-02-03T02:47:04;99051.09;;;6.03;89.79
7802;BME280;3945;48.952;9.506;2023-02-03T02:49:33;99044.34;;;6.00;90.38
7802;BME280;3945;48.952;9.506;2023-02-03T02:52:00;99058.22;;;6.02;89.66
7802;BME280;3945;48.952;9.506;2023-02-03T02:54:28;99050.28;;;6.02;90.40
7802;BME280;3945;48.952;9.506;2023-02-03T02:56:56;99056.22;;;6.04;90.01
7802;BME280;3945;48.952;9.506;2023-02-03T02:59:24;99049.09;;;6.05;89.86
7802;BME280;3945;48.952;9.506;2023-02-03T03:01:50;99032.69;;;6.09;89.81
7802;BME280;3945;48.952;9.506;2023-02-03T03:04:19;99029.03;;;6.10;89.69
7802;BME280;3945;48.952;9.506;2023-02-03T03:06:47;99026.41;;;6.10;90.21
7802;BME280;3945;48.952;9.506;2023-02-03T03:09:16;99031.88;;;6.09;90.45
7802;BME280;3945;48.952;9.506;2023-02-03T03:11:47;99029.03;;;6.10;90.94
7802;BME280;3945;48.952;9.506;2023-02-03T03:14:15;99021.94;;;6.11;91.00
7802;BME280;3945;48.952;9.506;2023-02-03T03:16:46;99018.09;;;6.13;90.65
7802;BME280;3945;48.952;9.506;2023-02-03T03:19:13;99019.72;;;6.14;90.97
7802;BME280;3945;48.952;9.506;2023-02-03T03:21:43;99024.03;;;6.15;90.58
7802;BME280;3945;48.952;9.506;2023-02-03T03:24:13;99027.66;;;6.14;90.69
7802;BME280;3945;48.952;9.506;2023-02-03T03:26:43;99041.16;;;6.19;90.70
7802;BME280;3945;48.952;9.506;2023-02-03T03:29:12;99050.16;;;6.25;90.77
7802;BME280;3945;48.952;9.506;2023-02-03T03:31:40;99051.41;;;6.29;90.90
7802;BME280;3945;48.952;9.506;2023-02-03T03:34:07;99055.72;;;6.30;89.51
7802;BME280;3945;48.952;9.506;2023-02-03T03:36:35;99057.34;;;6.31;90.09
7802;BME280;3945;48.952;9.506;2023-02-03T03:39:08;99063.47;;;6.32;89.64
7802;BME280;3945;48.952;9.506;2023-02-03T03:41:38;99075.94;;;6.38;90.16
7802;BME280;3945;48.952;9.506;2023-02-03T03:44:08;99076.56;;;6.40;89.91
7802;BME280;3945;48.952;9.506;2023-02-03T03:46:37;99076.81;;;6.45;89.46
7802;BME280;3945;48.952;9.506;2023-02-03T03:49:05;99085.13;;;6.42;89.49
7802;BME280;3945;48.952;9.506;2023-02-03T03:51:34;99090.69;;;6.47;90.07
7802;BME280;3945;48.952;9.506;2023-02-03T03:54:03;99089.88;;;6.46;89.22
7802;BME280;3945;48.952;9.506;2023-02-03T03:56:33;99091.69;;;6.46;89.11
7802;BME280;3945;48.952;9.506;2023-02-03T03:59:01;99089.03;;;6.46;89.69
7802;BME280;3945;48.952;9.506;2023-02-03T04:01:29;99095.97;;;6.47;89.55
7802;BME280;3945;48.952;9.506;2023-02-03T04:03:57;99093.75;;;6.50;89.50
7802;BME280;3945;48.952;9.506;2023-02-03T04:06:23;99098.22;;;6.50;89.99
7802;BME280;3945;48.952;9.506;2023-02-03T04:08:50;99096.22;;;6.52;90.01
7802;BME280;3945;48.952;9.506;2023-02-03T04:11:16;99080.13;;;6.47;89.66
7802;BME280;3945;48.952;9.506;2023-02-03T04:13:58;99084.41;;;6.48;89.81
7802;BME280;3945;48.952;9.506;2023-02-03T04:16:24;99083.38;;;6.49;89.11
7802;BME280;3945;48.952;9.506;2023-02-03T04:18:50;99087.66;;;6.50;89.29
7802;BME280;3945;48.952;9.506;2023-02-03T04:21:17;99091.94;;;6.51;88.86
7802;BME280;3945;48.952;9.506;2023-02-03T04:23:43;99092.50;;;6.46;90.88
7802;BME280;3945;48.952;9.506;2023-02-03T04:26:09;99092.50;;;6.46;91.32
7802;BME280;3945;48.952;9.506;2023-02-03T04:28:36;99085.94;;;6.42;91.58
7802;BME280;3945;48.952;9.506;2023-02-03T04:31:03;99081.84;;;6.40;91.64
7802;BME280;3945;48.952;9.506;2023-02-03T04:33:30;99081.41;;;6.36;91.91
7802;BME280;3945;48.952;9.506;2023-02-03T04:35:56;99075.09;;;6.37;92.25
7802;BME280;3945;48.952;9.506;2023-02-03T04:38:22;99065.09;;;6.33;92.77
7802;BME280;3945;48.952;9.506;2023-02-03T04:40:49;99076.66;;;6.32;91.93
7802;BME280;3945;48.952;9.506;2023-02-03T04:43:15;99074.31;;;6.22;92.33
7802;BME280;3945;48.952;9.506;2023-02-03T04:45:41;99088.91;;;6.18;92.73
7802;BME280;3945;48.952;9.506;2023-02-03T04:48:09;99095.38;;;6.15;92.80
7802;BME280;3945;48.952;9.506;2023-02-03T04:50:36;99069.50;;;6.11;92.81
7802;BME280;3945;48.952;9.506;2023-02-03T04:53:02;99057.03;;;6.05;93.37
7802;BME280;3945;48.952;9.506;2023-02-03T04:55:28;99050.94;;;6.04;93.46
7802;BME280;3945;48.952;9.506;2023-02-03T04:57:55;99064.22;;;5.96;94.48
7802;BME280;3945;48.952;9.506;2023-02-03T05:00:21;99069.50;;;5.96;93.85
7802;BME280;3945;48.952;9.506;2023-02-03T05:02:48;99061.19;;;5.99;94.59
7802;BME280;3945;48.952;9.506;2023-02-03T05:05:15;99069.88;;;5.93;94.59
7802;BME280;3945;48.952;9.506;2023-02-03T05:07:42;99073.06;;;5.88;95.43
7802;BME280;3945;48.952;9.506;2023-02-03T05:10:09;99084.63;;;5.87;95.72
7802;BME280;3945;48.952;9.506;2023-02-03T05:12:35;99084.78;;;5.86;95.62
7802;BME280;3945;48.952;9.506;2023-02-03T05:15:02;99082.88;;;5.80;96.30
7802;BME280;3945;48.952;9.506;2023-02-03T05:17:28;99069.41;;;5.75;96.74
7802;BME280;3945;48.952;9.506;2023-02-03T05:19:54;99075.66;;;5.74;97.37
7802;BME280;3945;48.952;9.506;2023-02-03T05:22:22;99067.91;;;5.72;97.44
7802;BME280;3945;48.952;9.506;2023-02-03T05:24:48;99063.63;;;5.71;97.23
7802;BME280;3945;48.952;9.506;2023-02-03T05:27:15;99057.28;;;5.66;97.79
7802;BME280;3945;48.952;9.506;2023-02-03T05:29:41;99070.47;;;5.66;98.28
7802;BME280;3945;48.952;9.506;2023-02-03T05:32:07;99063.19;;;5.68;98.24
7802;BME280;3945;48.952;9.506;2023-02-03T05:34:34;99074.47;;;5.62;98.20
7802;BME280;3945;48.952;9.506;2023-02-03T05:37:00;99091.31;;;5.61;98.82
7802;BME280;3945;48.952;9.506;2023-02-03T05:39:29;99078.13;;;5.61;98.95
7802;BME280;3945;48.952;9.506;2023-02-03T05:41:55;99086.38;;;5.58;99.14
7802;BME280;3945;48.952;9.506;2023-02-03T05:44:21;99083.31;;;5.54;99.72
7802;BME280;3945;48.952;9.506;2023-02-03T05:46:48;99095.69;;;5.54;99.28
7802;BME280;3945;48.952;9.506;2023-02-03T05:49:15;99079.19;;;5.52;99.90
7802;BME280;3945;48.952;9.506;2023-02-03T05:51:41;99062.34;;;5.53;99.82
7802;BME280;3945;48.952;9.506;2023-02-03T05:54:08;99053.34;;;5.47;100.00
7802;BME280;3945;48.952;9.506;2023-02-03T05:56:36;99045.44;;;5.47;100.00
7802;BME280;3945;48.952;9.506;2023-02-03T05:59:02;99058.63;;;5.47;100.00
7802;BME280;3945;48.952;9.506;2023-02-03T06:01:29;99064.91;;;5.46;100.00
7802;BME280;3945;48.952;9.506;2023-02-03T06:03:55;99077.09;;;5.47;100.00
7802;BME280;3945;48.952;9.506;2023-02-03T06:06:22;99061.25;;;5.47;100.00
7802;BME280;3945;48.952;9.506;2023-02-03T06:08:48;99067.53;;;5.46;100.00
7802;BME280;3945;48.952;9.506;2023-02-03T06:11:16;99071.81;;;5.47;100.00
7802;BME280;3945;48.952;9.506;2023-02-03T06:13:44;99068.38;;;5.46;100.00
7802;BME280;3945;48.952;9.506;2023-02-03T06:16:10;99062.25;;;5.46;100.00
7802;BME280;3945;48.952;9.506;2023-02-03T06:18:36;99069.19;;;5.47;100.00
7802;BME280;3945;48.952;9.506;2023-02-03T06:21:03;99071.00;;;5.46;100.00
7802;BME280;3945;48.952;9.506;2023-02-03T06:23:29;99064.69;;;5.47;100.00
7802;BME280;3945;48.952;9.506;2023-02-03T06:25:56;99061.88;;;5.49;100.00
7802;BME280;3945;48.952;9.506;2023-02-03T06:28:24;99054.13;;;5.47;100.00
7802;BME280;3945;48.952;9.506;2023-02-03T06:30:51;99050.50;;;5.48;100.00
7802;BME280;3945;48.952;9.506;2023-02-03T06:33:18;99054.78;;;5.49;100.00
7802;BME280;3945;48.952;9.506;2023-02-03T06:35:44;99053.97;;;5.49;100.00
7802;BME280;3945;48.952;9.506;2023-02-03T06:38:10;99047.16;;;5.55;100.00
7802;BME280;3945;48.952;9.506;2023-02-03T06:40:37;99041.25;;;5.53;100.00
7802;BME280;3945;48.952;9.506;2023-02-03T06:43:03;99034.97;;;5.54;100.00
7802;BME280;3945;48.952;9.506;2023-02-03T06:45:29;99032.31;;;5.54;100.00
7802;BME280;3945;48.952;9.506;2023-02-03T06:47:57;99026.84;;;5.55;100.00
7802;BME280;3945;48.952;9.506;2023-02-03T06:50:23;99027.88;;;5.54;100.00
7802;BME280;3945;48.952;9.506;2023-02-03T06:52:50;99016.47;;;5.54;100.00
7802;BME280;3945;48.952;9.506;2023-02-03T06:55:16;99018.75;;;5.57;100.00
7802;BME280;3945;48.952;9.506;2023-02-03T06:57:43;99030.50;;;5.54;100.00
7802;BME280;3945;48.952;9.506;2023-02-03T07:00:10;99037.41;;;5.55;100.00
7802;BME280;3945;48.952;9.506;2023-02-03T07:02:37;99043.88;;;5.53;100.00
7802;BME280;3945;48.952;9.506;2023-02-03T07:05:05;99026.22;;;5.53;100.00
7802;BME280;3945;48.952;9.506;2023-02-03T07:07:31;99041.88;;;5.55;100.00
7802;BME280;3945;48.952;9.506;2023-02-03T07:09:58;99027.03;;;5.54;100.00
7802;BME280;3945;48.952;9.506;2023-02-03T07:12:24;99027.31;;;5.59;100.00
7802;BME280;3945;48.952;9.506;2023-02-03T07:14:51;99028.13;;;5.59;100.00
7802;BME280;3945;48.952;9.506;2023-02-03T07:17:17;99036.06;;;5.59;100.00
7802;BME280;3945;48.952;9.506;2023-02-03T07:19:43;99028.13;;;5.59;100.00
7802;BME280;3945;48.952;9.506;2023-02-03T07:22:11;99032.75;;;5.57;100.00
7802;BME280;3945;48.952;9.506;2023-02-03T07:24:37;99025.66;;;5.58;100.00
7802;BME280;3945;48.952;9.506;2023-02-03T07:27:04;99025.66;;;5.58;100.00
7802;BME280;3945;48.952;9.506;2023-02-03T07:29:30;99030.22;;;5.64;100.00
7802;BME280;3945;48.952;9.506;2023-02-03T07:31:56;99034.88;;;5.62;100.00
7802;BME280;3945;48.952;9.506;2023-02-03T07:34:23;99043.59;;;5.62;100.00
7802;BME280;3945;48.952;9.506;2023-02-03T07:36:49;99053.53;;;5.60;100.00
7802;BME280;3945;48.952;9.506;2023-02-03T07:39:17;99058.66;;;5.62;100.00
7802;BME280;3945;48.952;9.506;2023-02-03T07:41:43;99061.72;;;5.65;100.00
7802;BME280;3945;48.952;9.506;2023-02-03T07:44:09;99062.56;;;5.66;100.00
7802;BME280;3945;48.952;9.506;2023-02-03T07:46:36;99054.81;;;5.64;99.81
7802;BME280;3945;48.952;9.506;2023-02-03T07:49:08;99060.72;;;5.66;99.20
7802;BME280;3945;48.952;9.506;2023-02-03T07:51:34;99070.66;;;5.64;99.54
7802;BME280;3945;48.952;9.506;2023-02-03T07:54:01;99076.91;;;5.63;99.63
7802;BME280;3945;48.952;9.506;2023-02-03T07:56:29;99080.56;;;5.62;100.00
7802;BME280;3945;48.952;9.506;2023-02-03T07:58:56;99082.19;;;5.63;100.00
7802;BME280;3945;48.952;9.506;2023-02-03T08:01:23;99090.13;;;5.63;99.92
7802;BME280;3945;48.952;9.506;2023-02-03T08:03:49;99104.69;;;5.59;100.00
7802;BME280;3945;48.952;9.506;2023-02-03T08:06:16;99100.06;;;5.61;100.00
7802;BME280;3945;48.952;9.506;2023-02-03T08:08:42;99099.25;;;5.61;100.00
7802;BME280;3945;48.952;9.506;2023-02-03T08:11:09;99093.75;;;5.62;100.00
7802;BME280;3945;48.952;9.506;2023-02-03T08:13:37;99089.69;;;5.60;99.70
7802;BME280;3945;48.952;9.506;2023-02-03T08:16:03;99092.16;;;5.61;100.00
7802;BME280;3945;48.952;9.506;2023-02-03T08:18:30;99092.16;;;5.61;99.93
7802;BME280;3945;48.952;9.506;2023-02-03T08:20:56;99095.78;;;5.60;100.00
7802;BME280;3945;48.952;9.506;2023-02-03T08:23:22;99092.97;;;5.62;99.94
7802;BME280;3945;48.952;9.506;2023-02-03T08:25:49;99093.13;;;5.60;100.00
7802;BME280;3945;48.952;9.506;2023-02-03T08:28:16;99074.66;;;5.60;99.80
7802;BME280;3945;48.952;9.506;2023-02-03T08:30:43;99058.00;;;5.60;99.95
7802;BME280;3945;48.952;9.506;2023-02-03T08:33:09;99072.84;;;5.61;99.72
7802;BME280;3945;48.952;9.506;2023-02-03T08:35:36;99081.75;;;5.60;100.00
7802;BME280;3945;48.952;9.506;2023-02-03T08:38:04;99095.59;;;5.62;100.00
7802;BME280;3945;48.952;9.506;2023-02-03T08:40:30;99109.97;;;5.59;100.00
7802;BME280;3945;48.952;9.506;2023-02-03T08:42:57;99119.88;;;5.57;100.00
7802;BME280;3945;48.952;9.506;2023-02-03T08:45:23;99102.97;;;5.66;100.00
7802;BME280;3945;48.952;9.506;2023-02-03T08:47:51;99097.03;;;5.64;100.00
7802;BME280;3945;48.952;9.506;2023-02-03T08:50:17;99094.22;;;5.66;100.00
7802;BME280;3945;48.952;9.506;2023-02-03T08:52:43;99087.47;;;5.63;100.00
7802;BME280;3945;48.952;9.506;2023-02-03T08:55:10;99094.97;;;5.60;100.00
7802;BME280;3945;48.952;9.506;2023-02-03T08:57:36;99106.34;;;5.60;100.00
7802;BME280;3945;48.952;9.506;2023-02-03T09:00:04;99094.59;;;5.63;100.00
7802;BME280;3945;48.952;9.506;2023-02-03T09:02:31;99081.03;;;5.66;100.00
7802;BME280;3945;48.952;9.506;2023-02-03T09:04:59;99080.03;;;5.67;100.00
7802;BME280;3945;48.952;9.506;2023-02-03T09:07:25;99076.56;;;5.66;100.00
7802;BME280;3945;48.952;9.506;2023-02-03T09:09:51;99081.78;;;5.74;100.00
7802;BME280;3945;48.952;9.506;2023-02-03T09:12:18;99081.03;;;5.80;100.00
7802;BME280;3945;48.952;9.506;2023-02-03T09:14:44;99083.25;;;5.92;100.00
7802;BME280;3945;48.952;9.506;2023-02-03T09:17:10;99078.53;;;6.02;100.00
7802;BME280;3945;48.952;9.506;2023-02-03T09:19:37;99083.25;;;6.06;100.00
7802;BME280;3945;48.952;9.506;2023-02-03T09:22:04;99081.97;;;6.17;100.00
7802;BME280;3945;48.952;9.506;2023-02-03T09:24:31;99091.63;;;6.24;100.00
7802;BME280;3945;48.952;9.506;2023-02-03T09:26:57;99105.09;;;6.30;100.00
7802;BME280;3945;48.952;9.506;2023-02-03T09:29:25;99102.72;;;6.35;100.00
7802;BME280;3945;48.952;9.506;2023-02-03T09:31:51;99104.66;;;6.41;99.61
7802;BME280;3945;48.952;9.506;2023-02-03T09:34:18;99103.91;;;6.47;99.06
7802;BME280;3945;48.952;9.506;2023-02-03T09:36:44;99089.56;;;6.56;98.25
7802;BME280;3945;48.952;9.506;2023-02-03T09:39:12;99078.63;;;6.59;99.04
7802;BME280;3945;48.952;9.506;2023-02-03T09:44:20;99079.63;;;6.58;98.82
7802;BME280;3945;48.952;9.506;2023-02-03T09:46:49;99092.66;;;6.59;97.87
7802;BME280;3945;48.952;9.506;2023-02-03T09:49:17;99085.53;;;6.60;97.72
7802;BME280;3945;48.952;9.506;2023-02-03T09:51:48;99069.09;;;6.64;97.46
7802;BME280;3945;48.952;9.506;2023-02-03T09:54:18;99065.84;;;6.62;97.45
7802;BME280;3945;48.952;9.506;2023-02-03T09:56:46;99060.09;;;6.59;97.07
7802;BME280;3945;48.952;9.506;2023-02-03T09:59:16;99072.50;;;6.58;98.07
7802;BME280;3945;48.952;9.506;2023-02-03T10:01:44;99052.63;;;6.62;97.94
7802;BME280;3945;48.952;9.506;2023-02-03T10:04:16;99060.91;;;6.59;97.46
7802;BME280;3945;48.952;9.506;2023-02-03T10:06:52;99066.47;;;6.64;97.50
7802;BME280;3945;48.952;9.506;2023-02-03T10:09:33;99065.72;;;6.71;96.44
7802;BME280;3945;48.952;9.506;2023-02-03T10:12:10;99083.09;;;6.80;96.18
7802;BME280;3945;48.952;9.506;2023-02-03T10:14:44;99086.00;;;6.85;94.69
7802;BME280;3945;48.952;9.506;2023-02-03T10:17:20;99083.63;;;6.90;94.71
7802;BME280;3945;48.952;9.506;2023-02-03T10:19:52;99083.69;;;6.96;94.67
7802;BME280;3945;48.952;9.506;2023-02-03T10:22:20;99086.97;;;6.98;95.24
7802;BME280;3945;48.952;9.506;2023-02-03T10:24:52;99081.53;;;7.06;92.61
7802;BME280;3945;48.952;9.506;2023-02-03T10:27:20;99086.63;;;7.08;93.24
7802;BME280;3945;48.952;9.506;2023-02-03T10:29:48;99082.41;;;7.14;91.57
7802;BME280;3945;48.952;9.506;2023-02-03T10:32:16;99088.72;;;7.13;91.86
7802;BME280;3945;48.952;9.506;2023-02-03T10:34:42;99085.28;;;7.12;91.81
7802;BME280;3945;48.952;9.506;2023-02-03T10:37:10;99078.16;;;7.13;92.17
7802;BME280;3945;48.952;9.506;2023-02-03T10:39:40;99079.97;;;7.12;92.07
7802;BME280;3945;48.952;9.506;2023-02-03T10:42:09;99080.59;;;7.14;92.25
7802;BME280;3945;48.952;9.506;2023-02-03T10:44:37;99086.97;;;7.20;90.98
7802;BME280;3945;48.952;9.506;2023-02-03T10:47:18;99092.09;;;7.28;90.82
7802;BME280;3945;48.952;9.506;2023-02-03T10:49:47;99094.19;;;7.32;91.50
7802;BME280;3945;48.952;9.506;2023-02-03T10:52:23;99087.91;;;7.33;90.97
7802;BME280;3945;48.952;9.506;2023-02-03T10:54:49;99087.25;;;7.31;90.68
7802;BME280;3945;48.952;9.506;2023-02-03T10:57:17;99082.34;;;7.28;91.61
7802;BME280;3945;48.952;9.506;2023-02-03T10:59:44;99074.78;;;7.25;91.95
7802;BME280;3945;48.952;9.506;2023-02-03T11:02:20;99052.78;;;7.25;92.08
7802;BME280;3945;48.952;9.506;2023-02-03T11:04:47;99041.38;;;7.24;91.92
7802;BME280;3945;48.952;9.506;2023-02-03T11:07:22;99040.59;;;7.30;91.85
7802;BME280;3945;48.952;9.506;2023-02-03T11:09:51;99041.25;;;7.32;91.56
7802;BME280;3945;48.952;9.506;2023-02-03T11:12:18;99039.78;;;7.30;91.72
7802;BME280;3945;48.952;9.506;2023-02-03T11:14:45;99024.09;;;7.28;92.33
7802;BME280;3945;48.952;9.506;2023-02-03T11:17:16;99032.66;;;7.30;93.20
7802;BME280;3945;48.952;9.506;2023-02-03T11:19:43;99037.31;;;7.28;93.97
7802;BME280;3945;48.952;9.506;2023-02-03T11:22:10;99044.25;;;7.29;94.16
7802;BME280;3945;48.952;9.506;2023-02-03T11:24:38;99042.44;;;7.30;93.74
7802;BME280;3945;48.952;9.506;2023-02-03T11:27:08;99045.66;;;7.25;94.43
7802;BME280;3945;48.952;9.506;2023-02-03T11:29:36;99053.56;;;7.19;94.72
7802;BME280;3945;48.952;9.506;2023-02-03T11:32:05;99052.28;;;7.15;94.94
7802;BME280;3945;48.952;9.506;2023-02-03T11:34:33;99043.06;;;7.04;96.05
7802;BME280;3945;48.952;9.506;2023-02-03T11:39:43;99036.31;;;7.01;96.00
7802;BME280;3945;48.952;9.506;2023-02-03T11:42:20;99030.38;;;6.99;95.95
7802;BME280;3945;48.952;9.506;2023-02-03T11:44:48;99029.38;;;7.00;96.97
7802;BME280;3945;48.952;9.506;2023-02-03T11:47:14;99025.91;;;7.00;96.80
7802;BME280;3945;48.952;9.506;2023-02-03T11:55:21;99010.38;;;6.90;96.97
7802;BME280;3945;48.952;9.506;2023-02-03T11:57:58;99016.47;;;6.91;97.93
7802;BME280;3945;48.952;9.506;2023-02-03T12:00:33;99019.13;;;6.91;97.41
7802;BME280;3945;48.952;9.506;2023-02-03T12:03:21;99005.69;;;6.92;96.51
7802;BME280;3945;48.952;9.506;2023-02-03T12:05:59;98994.91;;;6.94;95.56
7802;BME280;3945;48.952;9.506;2023-02-03T12:08:33;98996.38;;;6.96;95.07
7802;BME280;3945;48.952;9.506;2023-02-03T12:11:05;98996.78;;;7.00;94.91
7802;BME280;3945;48.952;9.506;2023-02-03T12:13:37;99006.19;;;7.02;93.80
7802;BME280;3945;48.952;9.506;2023-02-03T12:16:13;99001.94;;;7.08;92.70
7802;BME280;3945;48.952;9.506;2023-02-03T12:18:45;98995.66;;;7.09;91.73
7802;BME280;3945;48.952;9.506;2023-02-03T12:21:24;98985.50;;;7.13;90.98
7802;BME280;3945;48.952;9.506;2023-02-03T12:23:57;98979.81;;;7.16;91.16
7802;BME280;3945;48.952;9.506;2023-02-03T12:26:27;98972.28;;;7.13;90.65
7802;BME280;3945;48.952;9.506;2023-02-03T12:29:00;98966.22;;;7.19;89.52
7802;BME280;3945;48.952;9.506;2023-02-03T12:31:31;98962.34;;;7.21;89.16
7802;BME280;3945;48.952;9.506;2023-02-03T12:34:02;98964.81;;;7.23;88.58
7802;BME280;3945;48.952;9.506;2023-02-03T12:36:34;98949.56;;;7.25;88.79
7802;BME280;3945;48.952;9.506;2023-02-03T12:39:04;98957.31;;;7.26;89.36
7802;BME280;3945;48.952;9.506;2023-02-03T12:41:33;98959.53;;;7.29;88.77
7802;BME280;3945;48.952;9.506;2023-02-03T12:44:03;98953.44;;;7.29;88.39
7802;BME280;3945;48.952;9.506;2023-02-03T12:46:34;98944.28;;;7.31;88.56
7802;BME280;3945;48.952;9.506;2023-02-03T12:49:03;98937.81;;;7.34;87.71
7802;BME280;3945;48.952;9.506;2023-02-03T12:51:32;98939.41;;;7.35;87.44
7802;BME280;3945;48.952;9.506;2023-02-03T12:54:02;98921.28;;;7.32;88.41
7802;BME280;3945;48.952;9.506;2023-02-03T12:56:33;98933.72;;;7.31;88.48
7802;BME280;3945;48.952;9.506;2023-02-03T12:59:04;98940.19;;;7.29;89.17
7802;BME280;3945;48.952;9.506;2023-02-03T13:01:34;98939.19;;;7.30;87.27
7802;BME280;3945;48.952;9.506;2023-02-03T13:04:03;98937.16;;;7.32;87.59
7802;BME280;3945;48.952;9.506;2023-02-03T13:06:33;98927.41;;;7.32;87.29
7802;BME280;3945;48.952;9.506;2023-02-03T13:09:04;98922.28;;;7.31;88.66
7802;BME280;3945;48.952;9.506;2023-02-03T13:11:32;98914.16;;;7.32;87.81
7802;BME280;3945;48.952;9.506;2023-02-03T13:14:02;98903.56;;;7.32;88.08
7802;BME280;3945;48.952;9.506;2023-02-03T13:16:37;98898.66;;;7.29;88.15
7802;BME280;3945;48.952;9.506;2023-02-03T13:19:06;98899.28;;;7.31;88.52
7802;BME280;3945;48.952;9.506;2023-02-03T13:21:33;98901.31;;;7.29;88.59
7802;BME280;3945;48.952;9.506;2023-02-03T13:23:59;98911.91;;;7.29;88.27
7802;BME280;3945;48.952;9.506;2023-02-03T13:26:36;98887.25;;;7.29;88.37
7802;BME280;3945;48.952;9.506;2023-02-03T13:29:12;98873.81;;;7.30;88.71
7802;BME280;3945;48.952;9.506;2023-02-03T13:31:48;98871.63;;;7.34;87.46
7802;BME280;3945;48.952;9.506;2023-02-03T13:34:40;98854.69;;;7.35;87.84
7802;BME280;3945;48.952;9.506;2023-02-03T13:37:13;98852.84;;;7.29;87.44
7802;BME280;3945;48.952;9.506;2023-02-03T13:39:45;98834.31;;;7.29;88.64
7802;BME280;3945;48.952;9.506;2023-02-03T13:42:20;98821.06;;;7.29;88.14
7802;BME280;3945;48.952;9.506;2023-02-03T13:44:49;98816.00;;;7.27;88.41
7802;BME280;3945;48.952;9.506;2023-02-03T13:47:20;98843.69;;;7.31;88.44
7802;BME280;3945;48.952;9.506;2023-02-03T13:49:48;98868.72;;;7.29;87.90
7802;BME280;3945;48.952;9.506;2023-02-03T13:52:28;98863.66;;;7.27;88.08
7802;BME280;3945;48.952;9.506;2023-02-03T13:54:58;98869.13;;;7.26;88.48
7802;BME280;3945;48.952;9.506;2023-02-03T13:57:27;98867.06;;;7.28;87.49